sensor_id;sensor_type;location;lat;lon;timestamp;pressure;altitude;pressure_sealevel;temperature;humidity
26489;BME280;14169;43.684;10.484;2023-04-01T00:02:05;100562.59;;;14.27;100.00
26489;BME280;14169;43.684;10.484;2023-04-01T00:04:31;100564.66;;;14.20;100.00
26489;BME280;14169;43.684;10.484;2023-04-01T00:06:57;100560.59;;;14.15;100.00
26489;BME280;14169;43.684;10.484;2023-04-01T00:09:22;100573.03;;;14.10;100.00
26489;BME280;14169;43.684;10.484;2023-04-01T00:11:48;100567.88;;;14.08;100.00
26489;BME280;14169;43.684;10.484;2023-04-01T00:14:13;100571.41;;;14.07;100.00
26489;BME280;14169;43.684;10.484;2023-04-01T00:16:39;100561.09;;;14.04;100.00
26489;BME280;14169;43.684;10.484;2023-04-01T00:19:05;100558.63;;;14.01;100.00
26489;BME280;14169;43.684;10.484;2023-04-01T00:21:31;100553.53;;;13.98;100.00
26489;BME280;14169;43.684;10.484;2023-04-01T00:23:56;100560.63;;;13.96;100.00
26489;BME280;14169;43.684;10.484;2023-04-01T00:26:23;100562.47;;;13.94;100.00
26489;BME280;14169;43.684;10.484;2023-04-01T00:28:48;100550.38;;;13.92;100.00
26489;BME280;14169;43.684;10.484;2023-04-01T00:31:14;100537.44;;;13.89;100.00
26489;BME280;14169;43.684;10.484;2023-04-01T00:33:40;100537.56;;;13.86;100.00
26489;BME280;14169;43.684;10.484;2023-04-01T00:36:18;100542.97;;;13.83;100.00
26489;BME280;14169;43.684;10.484;2023-04-01T00:38:44;100543.09;;;13.80;100.00
26489;BME280;14169;43.684;10.484;2023-04-01T00:41:10;100540.69;;;13.75;100.00
26489;BME280;14169;43.684;10.484;2023-04-01T00:43:39;100540.00;;;13.72;100.00
26489;BME280;14169;43.684;10.484;2023-04-01T00:46:06;100541.06;;;13.68;100.00
26489;BME280;14169;43.684;10.484;2023-04-01T00:48:34;100549.84;;;13.67;100.00
26489;BME280;14169;43.684;10.484;2023-04-01T00:51:06;100554.31;;;13.65;100.00
26489;BME280;14169;43.684;10.484;2023-04-01T00:53:34;100560.53;;;13.62;100.00
26489;BME280;14169;43.684;10.484;2023-04-01T00:56:04;100558.00;;;13.61;100.00
26489;BME280;14169;43.684;10.484;2023-04-01T00:58:35;100565.00;;;13.60;100.00
26489;BME280;14169;43.684;10.484;2023-04-01T01:01:02;100566.84;;;13.58;100.00
26489;BME280;14169;43.684;10.484;2023-04-01T01:03:28;100564.31;;;13.57;100.00
26489;BME280;14169;43.684;10.484;2023-04-01T01:09:20;100565.50;;;13.49;100.00
26489;BME280;14169;43.684;10.484;2023-04-01T01:12:17;100571.66;;;13.48;100.00
26489;BME280;14169;43.684;10.484;2023-04-01T01:15:02;100570.03;;;13.46;100.00
26489;BME280;14169;43.684;10.484;2023-04-01T01:17:45;100569.31;;;13.42;100.00
26489;BME280;14169;43.684;10.484;2023-04-01T01:36:10;100565.84;;;13.23;100.00
26489;BME280;14169;43.684;10.484;2023-04-01T01:38:39;100562.59;;;13.18;100.00
26489;BME280;14169;43.684;10.484;2023-04-01T01:41:06;100565.22;;;13.18;100.00
26489;BME280;14169;43.684;10.484;2023-04-01T01:43:37;100553.00;;;13.17;100.00
26489;BME280;14169;43.684;10.484;2023-04-01T01:46:11;100559.28;;;13.13;100.00
26489;BME280;14169;43.684;10.484;2023-04-01T01:48:37;100562.84;;;13.12;100.00
26489;BME280;14169;43.684;10.484;2023-04-01T01:51:05;100558.59;;;13.10;100.00
26489;BME280;14169;43.684;10.484;2023-04-01T01:53:31;100559.56;;;13.07;100.00
26489;BME280;14169;43.684;10.484;2023-04-01T01:55:57;100563.91;;;13.08;100.00
26489;BME280;14169;43.684;10.484;2023-04-01T01:58:26;100568.28;;;13.08;100.00
26489;BME280;14169;43.684;10.484;2023-04-01T02:00:57;100561.19;;;13.10;100.00
26489;BME280;14169;43.684;10.484;2023-04-01T02:03:24;100562.84;;;13.12;100.00
26489;BME280;14169;43.684;10.484;2023-04-01T02:05:52;100561.00;;;13.14;100.00
26489;BME280;14169;43.684;10.484;2023-04-01T02:08:34;100556.63;;;13.15;100.00
26489;BME280;14169;43.684;10.484;2023-04-01T02:11:04;100554.13;;;13.12;100.00
26489;BME280;14169;43.684;10.484;2023-04-01T02:13:41;100548.91;;;13.12;100.00
26489;BME280;14169;43.684;10.484;2023-04-01T02:16:18;100552.81;;;13.03;100.00
26489;BME280;14169;43.684;10.484;2023-04-01T02:18:48;100549.59;;;12.97;100.00
26489;BME280;14169;43.684;10.484;2023-04-01T02:21:16;100551.56;;;12.92;100.00
26489;BME280;14169;43.684;10.484;2023-04-01T02:23:44;100549.19;;;12.87;100.00
26489;BME280;14169;43.684;10.484;2023-04-01T02:26:11;100558.97;;;12.82;100.00
26489;BME280;14169;43.684;10.484;2023-04-01T02:28:38;100557.31;;;12.80;100.00
26489;BME280;14169;43.684;10.484;2023-04-01T02:31:06;100563.41;;;12.80;100.00
26489;BME280;14169;43.684;10.484;2023-04-01T02:33:33;100562.50;;;12.81;100.00
26489;BME280;14169;43.684;10.484;2023-04-01T02:35:59;100558.97;;;12.82;100.00
26489;BME280;14169;43.684;10.484;2023-04-01T02:38:24;100553.63;;;12.85;100.00
26489;BME280;14169;43.684;10.484;2023-04-01T02:40:57;100558.97;;;12.82;100.00
26489;BME280;14169;43.684;10.484;2023-04-01T02:43:23;100566.19;;;12.77;100.00
26489;BME280;14169;43.684;10.484;2023-04-01T02:45:49;100572.50;;;12.72;100.00
26489;BME280;14169;43.684;10.484;2023-04-01T02:48:14;100571.00;;;12.66;100.00
26489;BME280;14169;43.684;10.484;2023-04-01T02:50:40;100569.59;;;12.59;100.00
26489;BME280;14169;43.684;10.484;2023-04-01T02:53:05;100574.03;;;12.57;100.00
26489;BME280;14169;43.684;10.484;2023-04-01T02:55:32;100569.88;;;12.51;100.00
26489;BME280;14169;43.684;10.484;2023-04-01T02:57:57;100573.50;;;12.49;100.00
26489;BME280;14169;43.684;10.484;2023-04-01T03:00:23;100572.81;;;12.44;100.00
26489;BME280;14169;43.684;10.484;2023-04-01T03:02:49;100573.03;;;12.39;100.00
26489;BME280;14169;43.684;10.484;2023-04-01T03:05:14;100574.91;;;12.36;100.00
26489;BME280;14169;43.684;10.484;2023-04-01T03:07:40;100585.31;;;12.37;100.00
26489;BME280;14169;43.684;10.484;2023-04-01T03:10:06;100590.72;;;12.33;100.00
26489;BME280;14169;43.684;10.484;2023-04-01T03:12:32;100586.28;;;12.35;100.00
26489;BME280;14169;43.684;10.484;2023-04-01T03:14:57;100594.06;;;12.36;100.00
26489;BME280;14169;43.684;10.484;2023-04-01T03:17:23;100592.22;;;12.38;100.00
26489;BME280;14169;43.684;10.484;2023-04-01T03:19:48;100599.22;;;12.38;100.00
26489;BME280;14169;43.684;10.484;2023-04-01T03:22:13;100607.13;;;12.36;100.00
26489;BME280;14169;43.684;10.484;2023-04-01T03:24:39;100594.38;;;12.29;100.00
26489;BME280;14169;43.684;10.484;2023-04-01T03:27:05;100598.09;;;12.23;100.00
26489;BME280;14169;43.684;10.484;2023-04-01T03:29:30;100600.88;;;12.19;100.00
26489;BME280;14169;43.684;10.484;2023-04-01T03:31:56;100606.34;;;12.13;100.00
26489;BME280;14169;43.684;10.484;2023-04-01T03:34:23;100606.59;;;12.07;100.00
26489;BME280;14169;43.684;10.484;2023-04-01T03:36:49;100605.91;;;12.02;100.00
26489;BME280;14169;43.684;10.484;2023-04-01T03:39:16;100604.31;;;11.99;100.00
26489;BME280;14169;43.684;10.484;2023-04-01T03:41:44;100606.25;;;11.93;100.00
26489;BME280;14169;43.684;10.484;2023-04-01T03:44:11;100601.38;;;11.83;100.00
26489;BME280;14169;43.684;10.484;2023-04-01T03:46:36;100616.22;;;11.83;100.00
26489;BME280;14169;43.684;10.484;2023-04-01T03:49:02;100619.72;;;11.82;100.00
26489;BME280;14169;43.684;10.484;2023-04-01T03:51:28;100620.44;;;11.86;100.00
26489;BME280;14169;43.684;10.484;2023-04-01T03:53:53;100624.72;;;11.88;100.00
26489;BME280;14169;43.684;10.484;2023-04-01T03:56:18;100622.00;;;11.91;100.00
26489;BME280;14169;43.684;10.484;2023-04-01T03:58:44;100611.50;;;11.93;100.00
26489;BME280;14169;43.684;10.484;2023-04-01T04:01:20;100615.00;;;11.92;100.00
26489;BME280;14169;43.684;10.484;2023-04-01T04:03:46;100624.72;;;11.88;100.00
26489;BME280;14169;43.684;10.484;2023-04-01T04:06:15;100617.84;;;11.86;100.00
26489;BME280;14169;43.684;10.484;2023-04-01T04:08:41;100631.75;;;11.86;100.00
26489;BME280;14169;43.684;10.484;2023-04-01T04:11:07;100629.13;;;11.86;100.00
26489;BME280;14169;43.684;10.484;2023-04-01T04:13:32;100629.13;;;11.86;100.00
26489;BME280;14169;43.684;10.484;2023-04-01T04:15:58;100643.94;;;11.86;100.00
26489;BME280;14169;43.684;10.484;2023-04-01T04:18:23;100640.44;;;11.87;100.00
26489;BME280;14169;43.684;10.484;2023-04-01T04:20:49;100650.88;;;11.87;100.00
26489;BME280;14169;43.684;10.484;2023-04-01T04:23:16;100636.13;;;11.86;100.00
26489;BME280;14169;43.684;10.484;2023-04-01T04:25:53;100636.19;;;11.84;100.00
26489;BME280;14169;43.684;10.484;2023-04-01T04:28:18;100646.63;;;11.84;100.00
26489;BME280;14169;43.684;10.484;2023-04-01T04:30:44;100648.38;;;11.83;100.00
26489;BME280;14169;43.684;10.484;2023-04-01T04:33:09;100641.47;;;11.82;100.00
26489;BME280;14169;43.684;10.484;2023-04-01T04:35:35;100634.72;;;11.77;100.00
26489;BME280;14169;43.684;10.484;2023-04-01T04:38:00;100637.41;;;11.75;100.00
26489;BME280;14169;43.684;10.484;2023-04-01T04:40:25;100637.56;;;11.71;100.00
26489;BME280;14169;43.684;10.484;2023-04-01T04:42:51;100647.22;;;11.69;100.00
26489;BME280;14169;43.684;10.484;2023-04-01T04:45:16;100651.59;;;11.68;100.00
26489;BME280;14169;43.684;10.484;2023-04-01T04:47:41;100655.03;;;11.69;100.00
26489;BME280;14169;43.684;10.484;2023-04-01T04:50:07;100655.94;;;11.68;100.00
26489;BME280;14169;43.684;10.484;2023-04-01T04:52:33;100658.50;;;11.69;100.00
26489;BME280;14169;43.684;10.484;2023-04-01T04:54:58;100656.69;;;11.71;100.00
26489;BME280;14169;43.684;10.484;2023-04-01T04:57:24;100662.03;;;11.68;100.00
26489;BME280;14169;43.684;10.484;2023-04-01T04:59:49;100663.03;;;11.64;100.00
26489;BME280;14169;43.684;10.484;2023-04-01T05:02:14;100658.75;;;11.63;100.00
26489;BME280;14169;43.684;10.484;2023-04-01T05:04:40;100665.88;;;11.58;100.00
26489;BME280;14169;43.684;10.484;2023-04-01T05:07:06;100664.22;;;11.56;100.00
26489;BME280;14169;43.684;10.484;2023-04-01T05:09:31;100657.38;;;11.53;100.00
26489;BME280;14169;43.684;10.484;2023-04-01T05:11:57;100664.41;;;11.51;100.00
26489;BME280;14169;43.684;10.484;2023-04-01T05:14:22;100661.81;;;11.51;100.00
26489;BME280;14169;43.684;10.484;2023-04-01T05:16:48;100669.63;;;11.51;100.00
26489;BME280;14169;43.684;10.484;2023-04-01T05:19:14;100674.84;;;11.51;100.00
26489;BME280;14169;43.684;10.484;2023-04-01T05:21:39;100672.13;;;11.54;100.00
26489;BME280;14169;43.684;10.484;2023-04-01T05:24:08;100681.53;;;11.58;100.00
26489;BME280;14169;43.684;10.484;2023-04-01T05:26:34;100678.69;;;11.64;100.00
26489;BME280;14169;43.684;10.484;2023-04-01T05:29:00;100691.53;;;11.70;100.00
26489;BME280;14169;43.684;10.484;2023-04-01T05:31:25;100687.03;;;11.74;100.00
26489;BME280;14169;43.684;10.484;2023-04-01T05:33:51;100685.19;;;11.77;100.00
26489;BME280;14169;43.684;10.484;2023-04-01T05:36:16;100697.16;;;11.81;100.00
26489;BME280;14169;43.684;10.484;2023-04-01T05:38:42;100692.50;;;11.90;100.00
26489;BME280;14169;43.684;10.484;2023-04-01T05:41:10;100695.78;;;11.96;100.00
26489;BME280;14169;43.684;10.484;2023-04-01T05:43:37;100703.63;;;11.96;100.00
26489;BME280;14169;43.684;10.484;2023-04-01T05:46:02;100702.53;;;12.02;100.00
26489;BME280;14169;43.684;10.484;2023-04-01T05:48:28;100705.81;;;12.07;100.00
26489;BME280;14169;43.684;10.484;2023-04-01T05:50:53;100708.44;;;12.07;100.00
26489;BME280;14169;43.684;10.484;2023-04-01T05:53:19;100706.47;;;12.12;100.00
26489;BME280;14169;43.684;10.484;2023-04-01T05:55:44;100703.53;;;12.21;100.00
26489;BME280;14169;43.684;10.484;2023-04-01T05:58:10;100696.25;;;12.29;100.00
26489;BME280;14169;43.684;10.484;2023-04-01T06:00:35;100696.09;;;12.32;100.00
26489;BME280;14169;43.684;10.484;2023-04-01T06:03:01;100702.91;;;12.36;100.00
26489;BME280;14169;43.684;10.484;2023-04-01T06:05:30;100700.84;;;12.44;100.00
26489;BME280;14169;43.684;10.484;2023-04-01T06:08:09;100702.31;;;12.51;100.00
26489;BME280;14169;43.684;10.484;2023-04-01T06:10:57;100690.75;;;12.56;100.00
26489;BME280;14169;43.684;10.484;2023-04-01T06:19:27;100704.78;;;12.96;100.00
26489;BME280;14169;43.684;10.484;2023-04-01T06:30:55;100714.28;;;12.98;100.00
26489;BME280;14169;43.684;10.484;2023-04-01T06:33:50;100717.59;;;13.02;100.00
26489;BME280;14169;43.684;10.484;2023-04-01T06:39:16;100706.78;;;13.31;100.00
26489;BME280;14169;43.684;10.484;2023-04-01T06:45:01;100712.53;;;13.59;100.00
26489;BME280;14169;43.684;10.484;2023-04-01T06:50:59;100708.84;;;13.63;100.00
26489;BME280;14169;43.684;10.484;2023-04-01T06:56:19;100706.56;;;13.74;100.00
26489;BME280;14169;43.684;10.484;2023-04-01T06:58:49;100714.22;;;13.79;100.00
26489;BME280;14169;43.684;10.484;2023-04-01T07:01:22;100711.19;;;13.88;100.00
26489;BME280;14169;43.684;10.484;2023-04-01T07:03:51;100714.88;;;14.02;100.00
26489;BME280;14169;43.684;10.484;2023-04-01T07:06:31;100707.56;;;14.27;100.00
26489;BME280;14169;43.684;10.484;2023-04-01T07:09:00;100719.72;;;14.47;100.00
26489;BME280;14169;43.684;10.484;2023-04-01T07:11:31;100721.44;;;14.29;100.00
26489;BME280;14169;43.684;10.484;2023-04-01T07:14:04;100719.81;;;14.27;100.00
26489;BME280;14169;43.684;10.484;2023-04-01T07:16:42;100718.81;;;14.48;100.00
26489;BME280;14169;43.684;10.484;2023-04-01T07:19:22;100723.97;;;14.50;100.00
26489;BME280;14169;43.684;10.484;2023-04-01T07:22:03;100717.84;;;14.68;100.00
26489;BME280;14169;43.684;10.484;2023-04-01T07:24:36;100707.91;;;14.91;100.00
26489;BME280;14169;43.684;10.484;2023-04-01T07:27:05;100705.69;;;15.18;100.00
26489;BME280;14169;43.684;10.484;2023-04-01T07:29:33;100717.41;;;15.28;100.00
26489;BME280;14169;43.684;10.484;2023-04-01T07:37:18;100728.59;;;14.80;100.00
26489;BME280;14169;43.684;10.484;2023-04-01T07:48:19;100730.97;;;15.19;100.00
26489;BME280;14169;43.684;10.484;2023-04-01T07:58:34;100749.97;;;15.58;100.00
26489;BME280;14169;43.684;10.484;2023-04-01T08:01:10;100736.13;;;15.72;100.00
26489;BME280;14169;43.684;10.484;2023-04-01T08:03:53;100739.19;;;15.80;100.00
26489;BME280;14169;43.684;10.484;2023-04-01T08:06:37;100741.47;;;15.86;100.00
26489;BME280;14169;43.684;10.484;2023-04-01T08:12:17;100755.09;;;16.41;100.00
26489;BME280;14169;43.684;10.484;2023-04-01T08:22:48;100765.03;;;16.51;100.00
26489;BME280;14169;43.684;10.484;2023-04-01T08:25:26;100776.44;;;16.19;100.00
26489;BME280;14169;43.684;10.484;2023-04-01T08:28:00;100781.28;;;16.11;100.00
26489;BME280;14169;43.684;10.484;2023-04-01T08:30:49;100778.91;;;16.07;100.00
26489;BME280;14169;43.684;10.484;2023-04-01T08:33:25;100774.53;;;16.38;100.00
26489;BME280;14169;43.684;10.484;2023-04-01T08:36:08;100794.06;;;16.50;100.00
26489;BME280;14169;43.684;10.484;2023-04-01T08:39:06;100798.41;;;16.66;100.00
26489;BME280;14169;43.684;10.484;2023-04-01T08:52:46;100821.38;;;17.39;100.00
26489;BME280;14169;43.684;10.484;2023-04-01T08:55:30;100822.00;;;17.13;100.00
26489;BME280;14169;43.684;10.484;2023-04-01T09:15:30;100839.19;;;16.73;100.00
26489;BME280;14169;43.684;10.484;2023-04-01T09:18:28;100828.94;;;16.84;100.00
26489;BME280;14169;43.684;10.484;2023-04-01T09:21:25;100830.38;;;17.35;100.00
26489;BME280;14169;43.684;10.484;2023-04-01T09:24:26;100835.78;;;17.48;100.00
26489;BME280;14169;43.684;10.484;2023-04-01T09:27:14;100824.38;;;17.77;100.00
26489;BME280;14169;43.684;10.484;2023-04-01T09:38:17;100829.19;;;17.99;100.00
26489;BME280;14169;43.684;10.484;2023-04-01T09:41:02;100823.63;;;18.17;100.00
26489;BME280;14169;43.684;10.484;2023-04-01T09:52:49;100831.13;;;19.33;100.00
26489;BME280;14169;43.684;10.484;2023-04-01T10:09:15;100841.91;;;18.20;100.00
26489;BME280;14169;43.684;10.484;2023-04-01T10:14:42;100833.16;;;17.92;100.00
26489;BME280;14169;43.684;10.484;2023-04-01T10:23:41;100827.56;;;18.52;100.00
26489;BME280;14169;43.684;10.484;2023-04-01T10:28:33;100812.66;;;18.92;100.00
26489;BME280;14169;43.684;10.484;2023-04-01T10:36:43;100806.66;;;19.17;100.00
26489;BME280;14169;43.684;10.484;2023-04-01T10:47:18;100799.78;;;19.79;100.00
26489;BME280;14169;43.684;10.484;2023-04-01T11:00:45;100795.44;;;20.15;100.00
26489;BME280;14169;43.684;10.484;2023-04-01T11:23:16;100785.53;;;20.43;94.17
26489;BME280;14169;43.684;10.484;2023-04-01T11:37:13;100791.94;;;20.64;97.76
26489;BME280;14169;43.684;10.484;2023-04-01T11:48:12;100761.81;;;20.54;100.00
26489;BME280;14169;43.684;10.484;2023-04-01T11:56:24;100748.16;;;20.11;100.00
26489;BME280;14169;43.684;10.484;2023-04-01T12:09:45;100748.94;;;20.73;92.21
26489;BME280;14169;43.684;10.484;2023-04-01T12:17:59;100747.78;;;20.88;90.66
26489;BME280;14169;43.684;10.484;2023-04-01T12:20:28;100737.59;;;20.71;85.55
26489;BME280;14169;43.684;10.484;2023-04-01T12:48:27;100734.66;;;20.63;96.71
26489;BME280;14169;43.684;10.484;2023-04-01T13:02:20;100726.81;;;20.38;100.00
26489;BME280;14169;43.684;10.484;2023-04-01T13:11:09;100745.63;;;20.46;100.00
26489;BME280;14169;43.684;10.484;2023-04-01T13:21:25;100726.31;;;20.80;100.00
26489;BME280;14169;43.684;10.484;2023-04-01T13:24:15;100724.75;;;21.12;100.00
26489;BME280;14169;43.684;10.484;2023-04-01T13:30:00;100721.53;;;20.85;97.87
26489;BME280;14169;43.684;10.484;2023-04-01T13:43:43;100729.69;;;20.82;99.82
26489;BME280;14169;43.684;10.484;2023-04-01T14:33:41;100702.41;;;20.69;94.73
26489;BME280;14169;43.684;10.484;2023-04-01T14:50:18;100672.00;;;20.27;100.00
26489;BME280;14169;43.684;10.484;2023-04-01T15:00:46;100684.78;;;21.15;96.28
26489;BME280;14169;43.684;10.484;2023-04-01T15:06:15;100689.66;;;20.03;98.70
26489;BME280;14169;43.684;10.484;2023-04-01T15:24:25;100691.28;;;20.53;99.27
26489;BME280;14169;43.684;10.484;2023-04-01T15:30:05;100668.13;;;21.02;100.00
26489;BME280;14169;43.684;10.484;2023-04-01T15:35:31;100679.81;;;20.99;100.00
26489;BME280;14169;43.684;10.484;2023-04-01T15:38:24;100678.28;;;21.30;100.00
26489;BME280;14169;43.684;10.484;2023-04-01T15:43:42;100683.78;;;21.05;96.80
26489;BME280;14169;43.684;10.484;2023-04-01T15:46:13;100683.72;;;21.18;99.11
26489;BME280;14169;43.684;10.484;2023-04-01T16:05:00;100687.78;;;19.80;100.00
26489;BME280;14169;43.684;10.484;2023-04-01T16:13:16;100682.19;;;20.20;100.00
26489;BME280;14169;43.684;10.484;2023-04-01T16:16:05;100692.53;;;19.75;100.00
26489;BME280;14169;43.684;10.484;2023-04-01T16:18:39;100701.44;;;19.74;100.00
26489;BME280;14169;43.684;10.484;2023-04-01T16:21:24;100691.53;;;19.00;100.00
26489;BME280;14169;43.684;10.484;2023-04-01T16:24:03;100691.78;;;18.97;100.00
26489;BME280;14169;43.684;10.484;2023-04-01T16:26:54;100700.47;;;18.73;100.00
26489;BME280;14169;43.684;10.484;2023-04-01T16:29:43;100688.84;;;18.36;100.00
26489;BME280;14169;43.684;10.484;2023-04-01T16:37:50;100693.59;;;17.18;100.00
26489;BME280;14169;43.684;10.484;2023-04-01T16:43:20;100694.84;;;17.55;100.00
26489;BME280;14169;43.684;10.484;2023-04-01T16:49:04;100699.66;;;16.75;100.00
26489;BME280;14169;43.684;10.484;2023-04-01T16:51:37;100689.22;;;16.44;100.00
26489;BME280;14169;43.684;10.484;2023-04-01T16:54:16;100694.53;;;16.11;100.00
26489;BME280;14169;43.684;10.484;2023-04-01T16:59:40;100698.13;;;16.10;100.00
26489;BME280;14169;43.684;10.484;2023-04-01T17:02:13;100687.41;;;16.13;100.00
26489;BME280;14169;43.684;10.484;2023-04-01T17:05:11;100699.22;;;16.06;100.00
26489;BME280;14169;43.684;10.484;2023-04-01T17:21:10;100712.78;;;15.16;100.00
26489;BME280;14169;43.684;10.484;2023-04-01T17:23:52;100716.41;;;14.96;100.00
26489;BME280;14169;43.684;10.484;2023-04-01T17:29:41;100731.13;;;14.82;100.00
26489;BME280;14169;43.684;10.484;2023-04-01T17:39:55;100764.28;;;14.66;100.00
26489;BME280;14169;43.684;10.484;2023-04-01T17:42:42;100770.47;;;14.65;100.00
26489;BME280;14169;43.684;10.484;2023-04-01T17:47:52;100774.16;;;14.61;100.00
26489;BME280;14169;43.684;10.484;2023-04-01T17:50:30;100779.69;;;14.55;100.00
26489;BME280;14169;43.684;10.484;2023-04-01T18:02:23;100774.28;;;14.39;100.00
26489;BME280;14169;43.684;10.484;2023-04-01T18:05:14;100772.69;;;14.37;100.00
26489;BME280;14169;43.684;10.484;2023-04-01T18:11:20;100762.75;;;14.24;100.00
26489;BME280;14169;43.684;10.484;2023-04-01T18:14:01;100766.50;;;14.19;100.00
26489;BME280;14169;43.684;10.484;2023-04-01T18:19:09;100757.28;;;14.10;100.00
26489;BME280;14169;43.684;10.484;2023-04-01T18:21:43;100762.53;;;14.10;100.00
26489;BME280;14169;43.684;10.484;2023-04-01T18:24:33;100771.25;;;14.11;100.00
26489;BME280;14169;43.684;10.484;2023-04-01T18:27:11;100770.81;;;14.20;100.00
26489;BME280;14169;43.684;10.484;2023-04-01T18:29:47;100773.75;;;14.32;100.00
26489;BME280;14169;43.684;10.484;2023-04-01T18:32:26;100771.75;;;14.38;100.00
26489;BME280;14169;43.684;10.484;2023-04-01T18:34:58;100777.69;;;14.41;100.00
26489;BME280;14169;43.684;10.484;2023-04-01T18:37:30;100777.00;;;14.38;100.00
26489;BME280;14169;43.684;10.484;2023-04-01T18:40:17;100773.31;;;14.42;100.00
26489;BME280;14169;43.684;10.484;2023-04-01T18:43:00;100776.56;;;14.47;100.00
26489;BME280;14169;43.684;10.484;2023-04-01T18:50:53;100776.78;;;14.42;100.00
26489;BME280;14169;43.684;10.484;2023-04-01T18:54:09;100781.03;;;14.45;100.00
26489;BME280;14169;43.684;10.484;2023-04-01T18:56:43;100783.88;;;14.40;100.00
26489;BME280;14169;43.684;10.484;2023-04-01T19:02:32;100783.28;;;14.33;100.00
26489;BME280;14169;43.684;10.484;2023-04-01T19:05:17;100787.03;;;14.28;100.00
26489;BME280;14169;43.684;10.484;2023-04-01T19:07:52;100781.78;;;14.28;100.00
26489;BME280;14169;43.684;10.484;2023-04-01T19:10:22;100781.84;;;14.26;100.00
26489;BME280;14169;43.684;10.484;2023-04-01T19:18:41;100779.59;;;14.19;100.00
26489;BME280;14169;43.684;10.484;2023-04-01T19:21:20;100786.44;;;14.21;100.00
26489;BME280;14169;43.684;10.484;2023-04-01T19:26:49;100783.50;;;14.29;100.00
26489;BME280;14169;43.684;10.484;2023-04-01T19:29:40;100785.38;;;14.25;100.00
26489;BME280;14169;43.684;10.484;2023-04-01T19:38:09;100781.78;;;14.28;100.00
26489;BME280;14169;43.684;10.484;2023-04-01T19:51:03;100770.88;;;14.37;100.00
26489;BME280;14169;43.684;10.484;2023-04-01T19:53:44;100772.41;;;14.43;100.00
26489;BME280;14169;43.684;10.484;2023-04-01T19:56:18;100770.31;;;14.49;100.00
26489;BME280;14169;43.684;10.484;2023-04-01T19:58:55;100770.31;;;14.49;100.00
26489;BME280;14169;43.684;10.484;2023-04-01T20:03:58;100766.50;;;14.56;100.00
26489;BME280;14169;43.684;10.484;2023-04-01T20:14:54;100770.66;;;14.60;100.00
26489;BME280;14169;43.684;10.484;2023-04-01T20:20:03;100764.78;;;14.55;100.00
26489;BME280;14169;43.684;10.484;2023-04-01T20:27:55;100769.81;;;14.60;100.00
26489;BME280;14169;43.684;10.484;2023-04-01T20:53:22;100787.16;;;14.81;100.00
26489;BME280;14169;43.684;10.484;2023-04-01T21:01:38;100778.03;;;14.88;100.00
26489;BME280;14169;43.684;10.484;2023-04-01T21:04:23;100786.59;;;14.91;100.00
26489;BME280;14169;43.684;10.484;2023-04-01T21:07:15;100782.00;;;14.96;100.00
26489;BME280;14169;43.684;10.484;2023-04-01T21:15:53;100786.56;;;14.93;100.00
26489;BME280;14169;43.684;10.484;2023-04-01T21:41:25;100781.81;;;14.82;100.00
26489;BME280;14169;43.684;10.484;2023-04-01T21:46:40;100775.81;;;14.80;100.00
26489;BME280;14169;43.684;10.484;2023-04-01T21:49:49;100765.22;;;14.82;100.00
26489;BME280;14169;43.684;10.484;2023-04-01T21:52:49;100764.16;;;14.86;100.00
26489;BME280;14169;43.684;10.484;2023-04-01T22:06:38;100762.22;;;14.89;100.00
26489;BME280;14169;43.684;10.484;2023-04-01T22:09:35;100760.38;;;14.91;100.00
26489;BME280;14169;43.684;10.484;2023-04-01T22:12:04;100764.81;;;14.91;100.00
26489;BME280;14169;43.684;10.484;2023-04-01T22:20:10;100768.13;;;14.94;100.00
26489;BME280;14169;43.684;10.484;2023-04-01T22:28:43;100757.31;;;15.00;100.00
26489;BME280;14169;43.684;10.484;2023-04-01T22:31:14;100751.22;;;15.00;100.00
26489;BME280;14169;43.684;10.484;2023-04-01T22:36:44;100761.94;;;14.95;100.00
26489;BME280;14169;43.684;10.484;2023-04-01T22:46:56;100753.22;;;14.59;100.00
26489;BME280;14169;43.684;10.484;2023-04-01T22:52:33;100748.66;;;14.27;100.00
26489;BME280;14169;43.684;10.484;2023-04-01T22:55:08;100747.22;;;14.20;100.00
26489;BME280;14169;43.684;10.484;2023-04-01T22:57:49;100744.38;;;14.06;100.00
26489;BME280;14169;43.684;10.484;2023-04-01T23:00:26;100744.03;;;13.95;100.00
26489;BME280;14169;43.684;10.484;2023-04-01T23:05:41;100731.50;;;13.83;100.00
26489;BME280;14169;43.684;10.484;2023-04-01T23:11:17;100745.16;;;13.89;100.00
26489;BME280;14169;43.684;10.484;2023-04-01T23:13:54;100739.34;;;14.01;100.00
26489;BME280;14169;43.684;10.484;2023-04-01T23:16:32;100735.53;;;14.08;100.00
26489;BME280;14169;43.684;10.484;2023-04-01T23:21:40;100748.50;;;14.11;100.00
26489;BME280;14169;43.684;10.484;2023-04-01T23:24:19;100736.25;;;14.12;100.00
26489;BME280;14169;43.684;10.484;2023-04-01T23:26:56;100737.81;;;14.16;100.00
26489;BME280;14169;43.684;10.484;2023-04-01T23:29:25;100741.97;;;14.20;100.00
26489;BME280;14169;43.684;10.484;2023-04-01T23:31:58;100747.09;;;14.23;100.00
26489;BME280;14169;43.684;10.484;2023-04-01T23:34:33;100754.19;;;14.21;100.00